Harvey Well — 3ETH2 — position and weather

sailwx.info

Track history (hours):
 
Tides and Currents Weather Stations Pressure Air Temp Water Temp Dewpoint Dewpoint Depression Visibility Wind Speed Wind Dir Waves Ship Positions

Harvey Well

Last reported at 2017-Aug-27 19:44 UTC. Time now 2017-Sep-26 18:29 UTC.
Position S 06°53' E 112°45'.
Warning: this ship's position is 29 days out of date.

Length 154 m; draft 9.6 m.

Type: Cargo ship. MMSI: 357876000.

Date/timePositionNaut miles runAvg speedWind from/ knotsBaromVisibWave heightAir tempDewpointWater temp
2017-Aug-27 19:44S 06°53' E 112°45'3 9.1
2017-Aug-27 19:25S 06°55' E 112°43'610.9
2017-Aug-27 18:55S 07°00' E 112°41'511.2
2017-Aug-27 18:30S 07°05' E 112°39'4 8.2
2017-Aug-27 18:00S 07°09' E 112°40'0 0.1
2017-Aug-27 15:59S 07°09' E 112°40'0 0.0
2017-Aug-27 13:16S 07°09' E 112°40'0 0.0
2017-Aug-27 01:19S 07°09' E 112°40'0 0.0
2017-Aug-27 00:46S 07°09' E 112°40'0 0.0
2017-Aug-26 23:25S 07°09' E 112°40'0 0.0
2017-Aug-26 22:55S 07°09' E 112°40'0 0.0
2017-Aug-26 17:40S 07°09' E 112°40'0 0.0
2017-Aug-26 15:19S 07°09' E 112°40'0 0.0
2017-Aug-26 13:28S 07°09' E 112°40'0 0.0
2017-Aug-26 11:34S 07°09' E 112°40'0 0.0
2017-Aug-26 09:37S 07°09' E 112°40'0 0.0
2017-Aug-26 08:31S 07°09' E 112°40'0 0.0
2017-Aug-25 23:30S 07°09' E 112°40'0 0.0
2017-Aug-25 23:00S 07°09' E 112°40'0 0.0
2017-Aug-25 22:21S 07°09' E 112°40'0 0.0
2017-Aug-25 21:51S 07°09' E 112°40'0 0.0
2017-Aug-25 17:39S 07°09' E 112°40'0 0.0
2017-Aug-25 17:24S 07°09' E 112°40'0 0.0
2017-Aug-25 16:21S 07°09' E 112°40'0 0.0
2017-Aug-25 14:45S 07°09' E 112°40'0 0.0
2017-Aug-25 11:33S 07°09' E 112°40'0 0.0
2017-Aug-25 10:03S 07°09' E 112°40'0 0.0
2017-Aug-25 09:45S 07°09' E 112°40'0 0.0
2017-Aug-25 08:09S 07°09' E 112°40'0 0.0
2017-Aug-25 02:42S 07°09' E 112°40'0 0.0
2017-Aug-25 01:51S 07°09' E 112°40'0 0.0
2017-Aug-25 01:27S 07°09' E 112°40'0 0.0
2017-Aug-24 17:36S 07°09' E 112°40'0 0.0
2017-Aug-24 13:32S 07°09' E 112°40'0 0.0
2017-Aug-24 13:02S 07°09' E 112°40'0 0.0
2017-Aug-24 12:32S 07°09' E 112°40'0 0.0
2017-Aug-24 10:23S 07°09' E 112°40'0 0.0
2017-Aug-24 09:53S 07°09' E 112°40'0 0.0
2017-Aug-24 09:20S 07°09' E 112°40'0 0.0
2017-Aug-24 08:41S 07°09' E 112°40'0 0.0
2017-Aug-24 08:11S 07°09' E 112°40'0 0.0
2017-Aug-24 07:41S 07°09' E 112°40'0 0.0
2017-Aug-24 07:26S 07°09' E 112°40'0 0.0
2017-Aug-24 05:41S 07°09' E 112°40'0 0.0
2017-Aug-24 05:20S 07°09' E 112°40'0 0.0
2017-Aug-24 04:50S 07°09' E 112°40'0 0.0
2017-Aug-23 21:14S 07°09' E 112°40'0 0.0
2017-Aug-23 20:50S 07°09' E 112°40'0 0.0
2017-Aug-23 18:32S 07°09' E 112°40'0 0.0
2017-Aug-23 18:02S 07°09' E 112°40'0 0.0
2017-Aug-23 17:38S 07°09' E 112°40'0 0.0
2017-Aug-23 15:38S 07°09' E 112°40'0 0.0
2017-Aug-23 15:26S 07°09' E 112°40'0 0.0
2017-Aug-23 14:32S 07°09' E 112°40'0 0.0
2017-Aug-23 09:02S 07°09' E 112°40'0 0.0
2017-Aug-23 08:56S 07°09' E 112°40'0 0.2
2017-Aug-23 08:30S 07°09' E 112°40'2 3.7
2017-Aug-23 08:00S 07°07' E 112°39'4 7.6
2017-Aug-23 07:30S 07°03' E 112°40'4 7.6
2017-Aug-23 07:00S 06°60' E 112°41'4 8.2
2017-Aug-23 06:30S 06°56' E 112°43'4 7.0
2017-Aug-23 05:58S 06°52' E 112°45'2 4.6
2017-Aug-23 05:30S 06°50' E 112°45'3911.1
2017-Aug-23 02:01S 06°12' E 112°46'110.2
2017-Aug-23 01:58S 06°11' E 112°46'611.5
2017-Aug-23 01:25S 06°07' E 112°51'  
Track history (hours):
 
Tides and Currents Weather Stations Pressure Air Temp Water Temp Dewpoint Dewpoint Depression Visibility Wind Speed Wind Dir Waves Ship Positions

Harvey Well

Last reported at 2017-Aug-27 19:44 UTC. Time now 2017-Sep-26 18:29 UTC.
Position S 06°53' E 112°45'.
Warning: this ship's position is 29 days out of date.

Length 154 m; draft 9.6 m.

Type: Cargo ship. MMSI: 357876000.

Date/timePositionNaut miles runAvg speedWind from/ knotsBaromVisibWave heightAir tempDewpointWater temp
2017-Aug-27 19:44S 06°53' E 112°45'3 9.1
2017-Aug-27 19:25S 06°55' E 112°43'610.9
2017-Aug-27 18:55S 07°00' E 112°41'511.2
2017-Aug-27 18:30S 07°05' E 112°39'4 8.2
2017-Aug-27 18:00S 07°09' E 112°40'0 0.1
2017-Aug-27 15:59S 07°09' E 112°40'0 0.0
2017-Aug-27 13:16S 07°09' E 112°40'0 0.0
2017-Aug-27 01:19S 07°09' E 112°40'0 0.0
2017-Aug-27 00:46S 07°09' E 112°40'0 0.0
2017-Aug-26 23:25S 07°09' E 112°40'0 0.0
2017-Aug-26 22:55S 07°09' E 112°40'0 0.0
2017-Aug-26 17:40S 07°09' E 112°40'0 0.0
2017-Aug-26 15:19S 07°09' E 112°40'0 0.0
2017-Aug-26 13:28S 07°09' E 112°40'0 0.0
2017-Aug-26 11:34S 07°09' E 112°40'0 0.0
2017-Aug-26 09:37S 07°09' E 112°40'0 0.0
2017-Aug-26 08:31S 07°09' E 112°40'0 0.0
2017-Aug-25 23:30S 07°09' E 112°40'0 0.0
2017-Aug-25 23:00S 07°09' E 112°40'0 0.0
2017-Aug-25 22:21S 07°09' E 112°40'0 0.0
2017-Aug-25 21:51S 07°09' E 112°40'0 0.0
2017-Aug-25 17:39S 07°09' E 112°40'0 0.0
2017-Aug-25 17:24S 07°09' E 112°40'0 0.0
2017-Aug-25 16:21S 07°09' E 112°40'0 0.0
2017-Aug-25 14:45S 07°09' E 112°40'0 0.0
2017-Aug-25 11:33S 07°09' E 112°40'0 0.0
2017-Aug-25 10:03S 07°09' E 112°40'0 0.0
2017-Aug-25 09:45S 07°09' E 112°40'0 0.0
2017-Aug-25 08:09S 07°09' E 112°40'0 0.0
2017-Aug-25 02:42S 07°09' E 112°40'0 0.0
2017-Aug-25 01:51S 07°09' E 112°40'0 0.0
2017-Aug-25 01:27S 07°09' E 112°40'0 0.0
2017-Aug-24 17:36S 07°09' E 112°40'0 0.0
2017-Aug-24 13:32S 07°09' E 112°40'0 0.0
2017-Aug-24 13:02S 07°09' E 112°40'0 0.0
2017-Aug-24 12:32S 07°09' E 112°40'0 0.0
2017-Aug-24 10:23S 07°09' E 112°40'0 0.0
2017-Aug-24 09:53S 07°09' E 112°40'0 0.0
2017-Aug-24 09:20S 07°09' E 112°40'0 0.0
2017-Aug-24 08:41S 07°09' E 112°40'0 0.0
2017-Aug-24 08:11S 07°09' E 112°40'0 0.0
2017-Aug-24 07:41S 07°09' E 112°40'0 0.0
2017-Aug-24 07:26S 07°09' E 112°40'0 0.0
2017-Aug-24 05:41S 07°09' E 112°40'0 0.0
2017-Aug-24 05:20S 07°09' E 112°40'0 0.0
2017-Aug-24 04:50S 07°09' E 112°40'0 0.0
2017-Aug-23 21:14S 07°09' E 112°40'0 0.0
2017-Aug-23 20:50S 07°09' E 112°40'0 0.0
2017-Aug-23 18:32S 07°09' E 112°40'0 0.0
2017-Aug-23 18:02S 07°09' E 112°40'0 0.0
2017-Aug-23 17:38S 07°09' E 112°40'0 0.0
2017-Aug-23 15:38S 07°09' E 112°40'0 0.0
2017-Aug-23 15:26S 07°09' E 112°40'0 0.0
2017-Aug-23 14:32S 07°09' E 112°40'0 0.0
2017-Aug-23 09:02S 07°09' E 112°40'0 0.0
2017-Aug-23 08:56S 07°09' E 112°40'0 0.2
2017-Aug-23 08:30S 07°09' E 112°40'2 3.7
2017-Aug-23 08:00S 07°07' E 112°39'4 7.6
2017-Aug-23 07:30S 07°03' E 112°40'4 7.6
2017-Aug-23 07:00S 06°60' E 112°41'4 8.2
2017-Aug-23 06:30S 06°56' E 112°43'4 7.0
2017-Aug-23 05:58S 06°52' E 112°45'2 4.6
2017-Aug-23 05:30S 06°50' E 112°45'3911.1
2017-Aug-23 02:01S 06°12' E 112°46'110.2
2017-Aug-23 01:58S 06°11' E 112°46'611.5
2017-Aug-23 01:25S 06°07' E 112°51'  

Dump ship's entire track history